sensor_id;sensor_type;location;lat;lon;timestamp;temperature;humidity
66086;DHT22;52868;49.758;9.586;2023-02-28T00:02:18;3.00;59.80
66086;DHT22;52868;49.758;9.586;2023-02-28T00:04:43;2.90;59.70
66086;DHT22;52868;49.758;9.586;2023-02-28T00:07:09;3.00;60.00
66086;DHT22;52868;49.758;9.586;2023-02-28T00:09:35;2.90;59.90
66086;DHT22;52868;49.758;9.586;2023-02-28T00:12:00;2.90;60.10
66086;DHT22;52868;49.758;9.586;2023-02-28T00:14:38;3.00;60.00
66086;DHT22;52868;49.758;9.586;2023-02-28T00:17:04;3.00;60.10
66086;DHT22;52868;49.758;9.586;2023-02-28T00:19:29;3.00;59.70
66086;DHT22;52868;49.758;9.586;2023-02-28T00:21:55;3.00;60.00
66086;DHT22;52868;49.758;9.586;2023-02-28T00:24:20;2.90;60.00
66086;DHT22;52868;49.758;9.586;2023-02-28T00:26:46;3.00;59.90
66086;DHT22;52868;49.758;9.586;2023-02-28T00:29:12;3.00;59.90
66086;DHT22;52868;49.758;9.586;2023-02-28T00:31:37;3.10;60.20
66086;DHT22;52868;49.758;9.586;2023-02-28T00:34:03;3.10;60.00
66086;DHT22;52868;49.758;9.586;2023-02-28T00:36:28;3.00;59.90
66086;DHT22;52868;49.758;9.586;2023-02-28T00:38:54;3.00;59.70
66086;DHT22;52868;49.758;9.586;2023-02-28T00:41:19;2.90;60.10
66086;DHT22;52868;49.758;9.586;2023-02-28T00:43:45;2.80;60.40
66086;DHT22;52868;49.758;9.586;2023-02-28T00:46:11;2.80;60.50
66086;DHT22;52868;49.758;9.586;2023-02-28T00:48:36;2.80;60.50
66086;DHT22;52868;49.758;9.586;2023-02-28T00:51:02;2.70;60.40
66086;DHT22;52868;49.758;9.586;2023-02-28T00:53:28;2.80;60.40
66086;DHT22;52868;49.758;9.586;2023-02-28T00:55:54;2.80;60.40
66086;DHT22;52868;49.758;9.586;2023-02-28T00:58:20;2.70;60.40
66086;DHT22;52868;49.758;9.586;2023-02-28T01:00:46;2.70;60.40
66086;DHT22;52868;49.758;9.586;2023-02-28T01:03:15;2.70;60.50
66086;DHT22;52868;49.758;9.586;2023-02-28T01:05:41;2.80;60.30
66086;DHT22;52868;49.758;9.586;2023-02-28T01:08:07;2.70;60.40
66086;DHT22;52868;49.758;9.586;2023-02-28T01:10:33;2.70;60.60
66086;DHT22;52868;49.758;9.586;2023-02-28T01:12:59;2.70;60.50
66086;DHT22;52868;49.758;9.586;2023-02-28T01:15:24;2.70;60.50
66086;DHT22;52868;49.758;9.586;2023-02-28T01:17:50;2.70;60.50
66086;DHT22;52868;49.758;9.586;2023-02-28T01:20:16;2.70;60.60
66086;DHT22;52868;49.758;9.586;2023-02-28T01:22:42;2.80;60.50
66086;DHT22;52868;49.758;9.586;2023-02-28T01:25:08;2.70;60.70
66086;DHT22;52868;49.758;9.586;2023-02-28T01:27:33;2.70;60.70
66086;DHT22;52868;49.758;9.586;2023-02-28T01:29:59;2.70;60.80
66086;DHT22;52868;49.758;9.586;2023-02-28T01:32:25;2.70;60.70
66086;DHT22;52868;49.758;9.586;2023-02-28T01:34:50;2.70;60.90
66086;DHT22;52868;49.758;9.586;2023-02-28T01:37:16;2.70;61.00
66086;DHT22;52868;49.758;9.586;2023-02-28T01:39:41;2.70;60.90
66086;DHT22;52868;49.758;9.586;2023-02-28T01:42:09;2.70;61.10
66086;DHT22;52868;49.758;9.586;2023-02-28T01:45:02;2.70;61.10
66086;DHT22;52868;49.758;9.586;2023-02-28T01:47:36;2.70;60.80
66086;DHT22;52868;49.758;9.586;2023-02-28T01:50:07;2.60;61.10
66086;DHT22;52868;49.758;9.586;2023-02-28T01:52:34;2.60;61.00
66086;DHT22;52868;49.758;9.586;2023-02-28T01:55:02;2.60;61.20
66086;DHT22;52868;49.758;9.586;2023-02-28T01:57:34;2.60;61.20
66086;DHT22;52868;49.758;9.586;2023-02-28T02:00:24;2.60;61.10
66086;DHT22;52868;49.758;9.586;2023-02-28T02:02:53;2.70;61.10
66086;DHT22;52868;49.758;9.586;2023-02-28T02:05:25;2.70;60.90
66086;DHT22;52868;49.758;9.586;2023-02-28T02:07:54;2.60;60.80
66086;DHT22;52868;49.758;9.586;2023-02-28T02:10:35;2.60;60.90
66086;DHT22;52868;49.758;9.586;2023-02-28T02:13:14;2.40;61.00
66086;DHT22;52868;49.758;9.586;2023-02-28T02:15:48;2.60;61.10
66086;DHT22;52868;49.758;9.586;2023-02-28T02:29:54;2.60;60.90
66086;DHT22;52868;49.758;9.586;2023-02-28T02:32:32;2.60;61.10
66086;DHT22;52868;49.758;9.586;2023-02-28T02:35:35;2.70;60.80
66086;DHT22;52868;49.758;9.586;2023-02-28T02:38:31;2.60;61.00
66086;DHT22;52868;49.758;9.586;2023-02-28T02:43:41;2.50;60.90
66086;DHT22;52868;49.758;9.586;2023-02-28T02:46:26;2.50;60.90
66086;DHT22;52868;49.758;9.586;2023-02-28T02:48:56;2.50;61.00
66086;DHT22;52868;49.758;9.586;2023-02-28T02:51:24;2.40;61.00
66086;DHT22;52868;49.758;9.586;2023-02-28T02:53:55;2.40;61.10
66086;DHT22;52868;49.758;9.586;2023-02-28T02:56:26;2.40;61.00
66086;DHT22;52868;49.758;9.586;2023-02-28T02:58:55;2.40;61.10
66086;DHT22;52868;49.758;9.586;2023-02-28T03:01:25;2.40;61.00
66086;DHT22;52868;49.758;9.586;2023-02-28T03:04:17;2.40;61.00
66086;DHT22;52868;49.758;9.586;2023-02-28T03:06:42;2.50;61.00
66086;DHT22;52868;49.758;9.586;2023-02-28T03:09:07;2.50;61.00
66086;DHT22;52868;49.758;9.586;2023-02-28T03:11:35;2.30;61.10
66086;DHT22;52868;49.758;9.586;2023-02-28T03:14:24;2.30;61.20
66086;DHT22;52868;49.758;9.586;2023-02-28T03:22:32;2.30;61.20
66086;DHT22;52868;49.758;9.586;2023-02-28T03:27:41;2.20;61.70
66086;DHT22;52868;49.758;9.586;2023-02-28T03:30:47;2.20;61.60
66086;DHT22;52868;49.758;9.586;2023-02-28T03:33:27;2.20;61.50
66086;DHT22;52868;49.758;9.586;2023-02-28T03:36:08;2.20;61.50
66086;DHT22;52868;49.758;9.586;2023-02-28T03:38:46;2.20;61.60
66086;DHT22;52868;49.758;9.586;2023-02-28T03:41:19;2.20;61.40
66086;DHT22;52868;49.758;9.586;2023-02-28T03:44:11;2.20;61.50
66086;DHT22;52868;49.758;9.586;2023-02-28T03:46:38;2.20;61.60
66086;DHT22;52868;49.758;9.586;2023-02-28T03:49:32;2.20;61.20
66086;DHT22;52868;49.758;9.586;2023-02-28T03:52:01;2.20;61.30
66086;DHT22;52868;49.758;9.586;2023-02-28T03:54:34;2.20;61.60
66086;DHT22;52868;49.758;9.586;2023-02-28T03:57:26;2.20;61.60
66086;DHT22;52868;49.758;9.586;2023-02-28T04:00:16;2.30;61.30
66086;DHT22;52868;49.758;9.586;2023-02-28T04:02:43;2.20;61.40
66086;DHT22;52868;49.758;9.586;2023-02-28T04:05:09;2.10;61.60
66086;DHT22;52868;49.758;9.586;2023-02-28T04:07:35;2.10;61.70
66086;DHT22;52868;49.758;9.586;2023-02-28T04:10:01;2.10;61.60
66086;DHT22;52868;49.758;9.586;2023-02-28T04:12:26;2.00;61.90
66086;DHT22;52868;49.758;9.586;2023-02-28T04:14:52;2.00;61.60
66086;DHT22;52868;49.758;9.586;2023-02-28T04:17:18;2.10;61.70
66086;DHT22;52868;49.758;9.586;2023-02-28T04:19:44;2.20;61.60
66086;DHT22;52868;49.758;9.586;2023-02-28T04:22:10;2.10;61.50
66086;DHT22;52868;49.758;9.586;2023-02-28T04:24:36;2.20;61.50
66086;DHT22;52868;49.758;9.586;2023-02-28T04:27:02;2.20;61.30
66086;DHT22;52868;49.758;9.586;2023-02-28T04:29:32;2.10;61.30
66086;DHT22;52868;49.758;9.586;2023-02-28T04:31:58;2.20;61.30
66086;DHT22;52868;49.758;9.586;2023-02-28T04:34:26;2.10;61.40
66086;DHT22;52868;49.758;9.586;2023-02-28T04:36:52;2.00;61.50
66086;DHT22;52868;49.758;9.586;2023-02-28T04:39:20;2.00;61.60
66086;DHT22;52868;49.758;9.586;2023-02-28T04:41:46;2.00;61.60
66086;DHT22;52868;49.758;9.586;2023-02-28T04:44:12;2.00;61.60
66086;DHT22;52868;49.758;9.586;2023-02-28T04:46:38;2.00;61.50
66086;DHT22;52868;49.758;9.586;2023-02-28T04:49:04;2.00;61.60
66086;DHT22;52868;49.758;9.586;2023-02-28T04:51:29;2.00;61.50
66086;DHT22;52868;49.758;9.586;2023-02-28T04:53:55;2.00;61.50
66086;DHT22;52868;49.758;9.586;2023-02-28T04:56:21;1.90;61.90
66086;DHT22;52868;49.758;9.586;2023-02-28T04:58:47;1.90;61.60
66086;DHT22;52868;49.758;9.586;2023-02-28T05:03:43;1.90;61.80
66086;DHT22;52868;49.758;9.586;2023-02-28T05:06:10;1.90;61.80
66086;DHT22;52868;49.758;9.586;2023-02-28T05:08:36;1.90;61.70
66086;DHT22;52868;49.758;9.586;2023-02-28T05:11:03;1.90;61.80
66086;DHT22;52868;49.758;9.586;2023-02-28T05:13:30;2.00;61.60
66086;DHT22;52868;49.758;9.586;2023-02-28T05:15:55;1.90;61.50
66086;DHT22;52868;49.758;9.586;2023-02-28T05:18:21;1.90;61.50
66086;DHT22;52868;49.758;9.586;2023-02-28T05:20:47;1.80;61.70
66086;DHT22;52868;49.758;9.586;2023-02-28T05:23:14;1.80;61.60
66086;DHT22;52868;49.758;9.586;2023-02-28T05:25:41;1.90;61.50
66086;DHT22;52868;49.758;9.586;2023-02-28T05:28:07;1.80;61.50
66086;DHT22;52868;49.758;9.586;2023-02-28T05:30:33;1.70;61.70
66086;DHT22;52868;49.758;9.586;2023-02-28T05:33:00;1.70;61.70
66086;DHT22;52868;49.758;9.586;2023-02-28T05:35:26;1.80;61.40
66086;DHT22;52868;49.758;9.586;2023-02-28T05:37:51;1.80;61.20
66086;DHT22;52868;49.758;9.586;2023-02-28T05:40:17;1.80;61.30
66086;DHT22;52868;49.758;9.586;2023-02-28T05:42:44;1.80;61.40
66086;DHT22;52868;49.758;9.586;2023-02-28T05:45:10;1.80;61.30
66086;DHT22;52868;49.758;9.586;2023-02-28T05:47:36;1.70;61.20
66086;DHT22;52868;49.758;9.586;2023-02-28T05:50:03;1.70;61.50
66086;DHT22;52868;49.758;9.586;2023-02-28T05:52:32;1.70;61.60
66086;DHT22;52868;49.758;9.586;2023-02-28T05:54:57;1.70;61.40
66086;DHT22;52868;49.758;9.586;2023-02-28T05:57:23;1.70;61.10
66086;DHT22;52868;49.758;9.586;2023-02-28T05:59:49;1.70;61.10
66086;DHT22;52868;49.758;9.586;2023-02-28T06:02:16;1.60;61.50
66086;DHT22;52868;49.758;9.586;2023-02-28T06:04:43;1.60;61.50
66086;DHT22;52868;49.758;9.586;2023-02-28T06:07:09;1.60;61.40
66086;DHT22;52868;49.758;9.586;2023-02-28T06:09:35;1.60;61.40
66086;DHT22;52868;49.758;9.586;2023-02-28T06:12:03;1.60;61.30
66086;DHT22;52868;49.758;9.586;2023-02-28T06:14:31;1.50;61.50
66086;DHT22;52868;49.758;9.586;2023-02-28T06:16:58;1.50;61.60
66086;DHT22;52868;49.758;9.586;2023-02-28T06:19:24;1.50;61.60
66086;DHT22;52868;49.758;9.586;2023-02-28T06:21:54;1.50;61.50
66086;DHT22;52868;49.758;9.586;2023-02-28T06:24:20;1.50;61.60
66086;DHT22;52868;49.758;9.586;2023-02-28T06:26:47;1.50;61.60
66086;DHT22;52868;49.758;9.586;2023-02-28T06:29:13;1.60;61.60
66086;DHT22;52868;49.758;9.586;2023-02-28T06:31:42;1.50;61.50
66086;DHT22;52868;49.758;9.586;2023-02-28T06:34:09;1.50;61.60
66086;DHT22;52868;49.758;9.586;2023-02-28T06:36:38;1.40;61.80
66086;DHT22;52868;49.758;9.586;2023-02-28T06:39:03;1.50;61.90
66086;DHT22;52868;49.758;9.586;2023-02-28T06:41:29;1.50;61.80
66086;DHT22;52868;49.758;9.586;2023-02-28T06:43:55;1.40;62.00
66086;DHT22;52868;49.758;9.586;2023-02-28T06:46:21;1.40;61.80
66086;DHT22;52868;49.758;9.586;2023-02-28T06:48:46;1.40;61.90
66086;DHT22;52868;49.758;9.586;2023-02-28T06:51:18;1.30;61.90
66086;DHT22;52868;49.758;9.586;2023-02-28T06:53:45;1.40;61.90
66086;DHT22;52868;49.758;9.586;2023-02-28T06:56:13;1.50;61.70
66086;DHT22;52868;49.758;9.586;2023-02-28T06:58:40;1.60;61.60
66086;DHT22;52868;49.758;9.586;2023-02-28T07:01:07;1.70;61.50
66086;DHT22;52868;49.758;9.586;2023-02-28T07:03:36;1.70;61.50
66086;DHT22;52868;49.758;9.586;2023-02-28T07:06:02;1.70;61.40
66086;DHT22;52868;49.758;9.586;2023-02-28T07:08:29;1.70;61.60
66086;DHT22;52868;49.758;9.586;2023-02-28T07:10:55;1.70;61.40
66086;DHT22;52868;49.758;9.586;2023-02-28T07:13:22;1.70;61.40
66086;DHT22;52868;49.758;9.586;2023-02-28T07:16:00;1.70;61.40
66086;DHT22;52868;49.758;9.586;2023-02-28T07:18:26;1.70;61.30
66086;DHT22;52868;49.758;9.586;2023-02-28T07:20:53;1.80;61.10
66086;DHT22;52868;49.758;9.586;2023-02-28T07:23:18;1.90;61.30
66086;DHT22;52868;49.758;9.586;2023-02-28T07:25:45;1.90;61.30
66086;DHT22;52868;49.758;9.586;2023-02-28T07:28:11;1.80;61.50
66086;DHT22;52868;49.758;9.586;2023-02-28T07:30:37;1.80;61.40
66086;DHT22;52868;49.758;9.586;2023-02-28T07:33:03;1.90;61.30
66086;DHT22;52868;49.758;9.586;2023-02-28T07:35:30;2.00;61.10
66086;DHT22;52868;49.758;9.586;2023-02-28T07:37:57;2.00;61.30
66086;DHT22;52868;49.758;9.586;2023-02-28T07:40:23;2.10;61.40
66086;DHT22;52868;49.758;9.586;2023-02-28T07:42:48;2.00;61.30
66086;DHT22;52868;49.758;9.586;2023-02-28T07:45:14;2.10;61.40
66086;DHT22;52868;49.758;9.586;2023-02-28T07:47:41;2.20;61.10
66086;DHT22;52868;49.758;9.586;2023-02-28T07:50:09;2.20;61.10
66086;DHT22;52868;49.758;9.586;2023-02-28T07:52:36;2.20;61.10
66086;DHT22;52868;49.758;9.586;2023-02-28T07:55:02;2.30;61.00
66086;DHT22;52868;49.758;9.586;2023-02-28T07:57:28;2.30;60.90
66086;DHT22;52868;49.758;9.586;2023-02-28T07:59:53;2.40;60.80
66086;DHT22;52868;49.758;9.586;2023-02-28T08:02:19;2.30;61.00
66086;DHT22;52868;49.758;9.586;2023-02-28T08:04:45;2.40;61.10
66086;DHT22;52868;49.758;9.586;2023-02-28T08:07:13;2.40;61.30
66086;DHT22;52868;49.758;9.586;2023-02-28T08:09:42;2.50;60.90
66086;DHT22;52868;49.758;9.586;2023-02-28T08:12:09;2.50;60.50
66086;DHT22;52868;49.758;9.586;2023-02-28T08:14:35;2.60;60.50
66086;DHT22;52868;49.758;9.586;2023-02-28T08:17:01;2.70;60.30
66086;DHT22;52868;49.758;9.586;2023-02-28T08:19:27;2.70;60.70
66086;DHT22;52868;49.758;9.586;2023-02-28T08:21:52;2.80;60.20
66086;DHT22;52868;49.758;9.586;2023-02-28T08:24:18;2.70;60.00
66086;DHT22;52868;49.758;9.586;2023-02-28T08:26:43;2.90;60.30
66086;DHT22;52868;49.758;9.586;2023-02-28T08:29:09;3.00;60.20
66086;DHT22;52868;49.758;9.586;2023-02-28T08:31:35;3.00;59.70
66086;DHT22;52868;49.758;9.586;2023-02-28T08:34:13;2.90;59.70
66086;DHT22;52868;49.758;9.586;2023-02-28T08:36:39;3.00;59.50
66086;DHT22;52868;49.758;9.586;2023-02-28T08:39:05;3.00;59.70
66086;DHT22;52868;49.758;9.586;2023-02-28T08:41:31;3.00;59.10
66086;DHT22;52868;49.758;9.586;2023-02-28T08:43:57;3.10;59.40
66086;DHT22;52868;49.758;9.586;2023-02-28T08:46:23;3.20;59.40
66086;DHT22;52868;49.758;9.586;2023-02-28T08:48:52;3.20;59.30
66086;DHT22;52868;49.758;9.586;2023-02-28T08:51:19;3.20;58.70
66086;DHT22;52868;49.758;9.586;2023-02-28T08:53:55;3.20;59.00
66086;DHT22;52868;49.758;9.586;2023-02-28T08:56:21;3.20;58.90
66086;DHT22;52868;49.758;9.586;2023-02-28T08:58:49;3.30;59.10
66086;DHT22;52868;49.758;9.586;2023-02-28T09:01:19;3.40;59.10
66086;DHT22;52868;49.758;9.586;2023-02-28T09:03:47;3.50;58.80
66086;DHT22;52868;49.758;9.586;2023-02-28T09:06:13;3.60;58.90
66086;DHT22;52868;49.758;9.586;2023-02-28T09:08:40;3.60;58.70
66086;DHT22;52868;49.758;9.586;2023-02-28T09:11:06;3.60;58.10
66086;DHT22;52868;49.758;9.586;2023-02-28T09:13:32;3.70;58.60
66086;DHT22;52868;49.758;9.586;2023-02-28T09:15:59;3.70;58.00
66086;DHT22;52868;49.758;9.586;2023-02-28T09:18:26;3.70;57.80
66086;DHT22;52868;49.758;9.586;2023-02-28T09:20:51;3.80;58.40
66086;DHT22;52868;49.758;9.586;2023-02-28T09:23:18;3.90;58.30
66086;DHT22;52868;49.758;9.586;2023-02-28T09:25:49;3.90;57.80
66086;DHT22;52868;49.758;9.586;2023-02-28T09:28:15;3.90;57.60
66086;DHT22;52868;49.758;9.586;2023-02-28T09:30:44;3.90;57.20
66086;DHT22;52868;49.758;9.586;2023-02-28T09:33:10;3.90;56.80
66086;DHT22;52868;49.758;9.586;2023-02-28T09:35:35;4.00;57.20
66086;DHT22;52868;49.758;9.586;2023-02-28T09:38:03;4.10;57.20
66086;DHT22;52868;49.758;9.586;2023-02-28T09:40:29;4.00;56.50
66086;DHT22;52868;49.758;9.586;2023-02-28T09:42:57;4.10;56.80
66086;DHT22;52868;49.758;9.586;2023-02-28T09:45:29;4.10;57.40
66086;DHT22;52868;49.758;9.586;2023-02-28T09:48:06;4.00;56.60
66086;DHT22;52868;49.758;9.586;2023-02-28T09:50:40;4.10;56.70
66086;DHT22;52868;49.758;9.586;2023-02-28T09:55:51;3.90;56.10
66086;DHT22;52868;49.758;9.586;2023-02-28T10:01:27;4.10;57.40
66086;DHT22;52868;49.758;9.586;2023-02-28T10:04:05;4.20;57.30
66086;DHT22;52868;49.758;9.586;2023-02-28T10:06:55;4.20;57.80
66086;DHT22;52868;49.758;9.586;2023-02-28T10:09:30;4.20;56.70
66086;DHT22;52868;49.758;9.586;2023-02-28T10:11:59;4.10;56.10
66086;DHT22;52868;49.758;9.586;2023-02-28T10:14:29;4.10;57.40
66086;DHT22;52868;49.758;9.586;2023-02-28T10:17:02;4.20;57.60
66086;DHT22;52868;49.758;9.586;2023-02-28T10:19:38;4.20;56.90
66086;DHT22;52868;49.758;9.586;2023-02-28T10:24:50;4.20;57.20
66086;DHT22;52868;49.758;9.586;2023-02-28T10:27:21;4.20;56.70
66086;DHT22;52868;49.758;9.586;2023-02-28T10:29:53;4.20;56.70
66086;DHT22;52868;49.758;9.586;2023-02-28T10:32:24;4.20;55.80
66086;DHT22;52868;49.758;9.586;2023-02-28T10:34:53;4.10;56.00
66086;DHT22;52868;49.758;9.586;2023-02-28T10:37:22;4.20;56.90
66086;DHT22;52868;49.758;9.586;2023-02-28T10:39:47;4.30;57.20
66086;DHT22;52868;49.758;9.586;2023-02-28T10:42:28;4.40;57.00
66086;DHT22;52868;49.758;9.586;2023-02-28T10:45:17;4.40;57.20
66086;DHT22;52868;49.758;9.586;2023-02-28T10:47:55;4.50;58.00
66086;DHT22;52868;49.758;9.586;2023-02-28T10:56:24;4.40;55.90
66086;DHT22;52868;49.758;9.586;2023-02-28T10:58:56;4.50;56.90
66086;DHT22;52868;49.758;9.586;2023-02-28T11:01:33;4.40;56.70
66086;DHT22;52868;49.758;9.586;2023-02-28T11:04:00;4.40;55.80
66086;DHT22;52868;49.758;9.586;2023-02-28T11:06:32;4.20;56.00
66086;DHT22;52868;49.758;9.586;2023-02-28T11:09:22;4.30;56.50
66086;DHT22;52868;49.758;9.586;2023-02-28T11:11:50;4.20;55.60
66086;DHT22;52868;49.758;9.586;2023-02-28T11:14:22;4.30;56.40
66086;DHT22;52868;49.758;9.586;2023-02-28T11:16:49;4.30;55.80
66086;DHT22;52868;49.758;9.586;2023-02-28T11:19:38;4.30;56.10
66086;DHT22;52868;49.758;9.586;2023-02-28T11:22:05;4.40;56.70
66086;DHT22;52868;49.758;9.586;2023-02-28T11:24:41;4.40;55.80
66086;DHT22;52868;49.758;9.586;2023-02-28T11:29:56;4.40;56.20
66086;DHT22;52868;49.758;9.586;2023-02-28T11:32:24;4.40;56.60
66086;DHT22;52868;49.758;9.586;2023-02-28T11:37:48;4.30;55.40
66086;DHT22;52868;49.758;9.586;2023-02-28T11:43:37;4.30;56.60
66086;DHT22;52868;49.758;9.586;2023-02-28T11:46:51;4.40;56.50
66086;DHT22;52868;49.758;9.586;2023-02-28T11:51:53;4.40;56.40
66086;DHT22;52868;49.758;9.586;2023-02-28T11:59:58;4.40;55.20
66086;DHT22;52868;49.758;9.586;2023-02-28T12:02:56;4.40;56.40
66086;DHT22;52868;49.758;9.586;2023-02-28T12:11:05;4.40;55.30
66086;DHT22;52868;49.758;9.586;2023-02-28T12:13:55;4.40;55.40
66086;DHT22;52868;49.758;9.586;2023-02-28T12:27:30;4.60;56.00
66086;DHT22;52868;49.758;9.586;2023-02-28T12:32:39;4.60;55.60
66086;DHT22;52868;49.758;9.586;2023-02-28T12:35:11;4.60;55.50
66086;DHT22;52868;49.758;9.586;2023-02-28T12:38:36;4.60;56.20
66086;DHT22;52868;49.758;9.586;2023-02-28T12:40:49;4.70;56.30
66086;DHT22;52868;49.758;9.586;2023-02-28T12:43:17;4.60;56.40
66086;DHT22;52868;49.758;9.586;2023-02-28T12:45:56;4.70;56.30
66086;DHT22;52868;49.758;9.586;2023-02-28T12:48:41;4.50;55.10
66086;DHT22;52868;49.758;9.586;2023-02-28T12:51:08;4.50;55.20
66086;DHT22;52868;49.758;9.586;2023-02-28T12:56:16;4.60;56.20
66086;DHT22;52868;49.758;9.586;2023-02-28T12:58:48;4.70;55.10
66086;DHT22;52868;49.758;9.586;2023-02-28T13:10:01;4.70;55.10
66086;DHT22;52868;49.758;9.586;2023-02-28T13:12:28;4.70;55.40
66086;DHT22;52868;49.758;9.586;2023-02-28T13:15:23;4.70;56.10
66086;DHT22;52868;49.758;9.586;2023-02-28T13:17:55;4.80;55.40
66086;DHT22;52868;49.758;9.586;2023-02-28T13:20:57;4.70;54.10
66086;DHT22;52868;49.758;9.586;2023-02-28T13:26:00;4.80;56.10
66086;DHT22;52868;49.758;9.586;2023-02-28T13:31:24;4.80;55.40
66086;DHT22;52868;49.758;9.586;2023-02-28T13:36:29;4.80;55.00
66086;DHT22;52868;49.758;9.586;2023-02-28T13:38:56;4.90;55.10
66086;DHT22;52868;49.758;9.586;2023-02-28T13:44:10;5.00;55.70
66086;DHT22;52868;49.758;9.586;2023-02-28T13:52:17;5.00;55.70
66086;DHT22;52868;49.758;9.586;2023-02-28T13:55:22;5.00;56.30
66086;DHT22;52868;49.758;9.586;2023-02-28T14:01:23;5.10;56.20
66086;DHT22;52868;49.758;9.586;2023-02-28T14:06:38;5.00;55.20
66086;DHT22;52868;49.758;9.586;2023-02-28T14:09:30;5.10;55.40
66086;DHT22;52868;49.758;9.586;2023-02-28T14:11:58;5.00;54.30
66086;DHT22;52868;49.758;9.586;2023-02-28T14:17:15;5.10;54.70
66086;DHT22;52868;49.758;9.586;2023-02-28T14:19:44;5.10;54.70
66086;DHT22;52868;49.758;9.586;2023-02-28T14:28:26;5.10;54.90
66086;DHT22;52868;49.758;9.586;2023-02-28T14:31:09;5.10;55.90
66086;DHT22;52868;49.758;9.586;2023-02-28T14:36:36;5.10;54.90
66086;DHT22;52868;49.758;9.586;2023-02-28T14:39:14;5.20;55.70
66086;DHT22;52868;49.758;9.586;2023-02-28T14:41:41;5.10;56.30
66086;DHT22;52868;49.758;9.586;2023-02-28T14:44:23;5.20;56.10
66086;DHT22;52868;49.758;9.586;2023-02-28T14:46:52;5.20;55.40
66086;DHT22;52868;49.758;9.586;2023-02-28T14:52:23;5.20;56.00
66086;DHT22;52868;49.758;9.586;2023-02-28T14:55:00;5.20;54.60
66086;DHT22;52868;49.758;9.586;2023-02-28T14:57:29;5.20;55.40
66086;DHT22;52868;49.758;9.586;2023-02-28T15:02:41;5.20;56.00
66086;DHT22;52868;49.758;9.586;2023-02-28T15:07:39;5.20;55.50
66086;DHT22;52868;49.758;9.586;2023-02-28T15:10:10;5.20;56.40
66086;DHT22;52868;49.758;9.586;2023-02-28T15:12:37;5.20;55.80
66086;DHT22;52868;49.758;9.586;2023-02-28T15:15:06;5.20;55.70
66086;DHT22;52868;49.758;9.586;2023-02-28T15:17:39;5.20;55.80
66086;DHT22;52868;49.758;9.586;2023-02-28T15:20:10;5.20;55.60
66086;DHT22;52868;49.758;9.586;2023-02-28T15:22:37;5.20;55.70
66086;DHT22;52868;49.758;9.586;2023-02-28T15:25:05;5.20;55.20
66086;DHT22;52868;49.758;9.586;2023-02-28T15:27:33;5.20;54.10
66086;DHT22;52868;49.758;9.586;2023-02-28T15:30:04;5.20;55.70
66086;DHT22;52868;49.758;9.586;2023-02-28T15:32:38;5.20;56.00
66086;DHT22;52868;49.758;9.586;2023-02-28T15:37:56;5.20;55.90
66086;DHT22;52868;49.758;9.586;2023-02-28T15:40:54;5.20;55.90
66086;DHT22;52868;49.758;9.586;2023-02-28T15:43:34;5.20;55.20
66086;DHT22;52868;49.758;9.586;2023-02-28T15:46:23;5.20;56.00
66086;DHT22;52868;49.758;9.586;2023-02-28T15:48:54;5.20;56.20
66086;DHT22;52868;49.758;9.586;2023-02-28T15:51:32;5.20;54.90
66086;DHT22;52868;49.758;9.586;2023-02-28T15:54:06;5.20;55.20
66086;DHT22;52868;49.758;9.586;2023-02-28T15:56:38;5.20;55.10
66086;DHT22;52868;49.758;9.586;2023-02-28T15:59:16;5.20;56.20
66086;DHT22;52868;49.758;9.586;2023-02-28T16:01:43;5.20;55.70
66086;DHT22;52868;49.758;9.586;2023-02-28T16:04:14;5.20;56.10
66086;DHT22;52868;49.758;9.586;2023-02-28T16:06:44;5.20;55.70
66086;DHT22;52868;49.758;9.586;2023-02-28T16:09:15;5.20;55.40
66086;DHT22;52868;49.758;9.586;2023-02-28T16:11:46;5.20;55.70
66086;DHT22;52868;49.758;9.586;2023-02-28T16:14:18;5.20;54.40
66086;DHT22;52868;49.758;9.586;2023-02-28T16:16:46;5.20;54.70
66086;DHT22;52868;49.758;9.586;2023-02-28T16:19:12;5.20;54.70
66086;DHT22;52868;49.758;9.586;2023-02-28T16:21:38;5.20;55.40
66086;DHT22;52868;49.758;9.586;2023-02-28T16:24:04;5.20;55.20
66086;DHT22;52868;49.758;9.586;2023-02-28T16:26:30;5.20;54.90
66086;DHT22;52868;49.758;9.586;2023-02-28T16:28:55;5.20;55.20
66086;DHT22;52868;49.758;9.586;2023-02-28T16:31:21;5.10;54.60
66086;DHT22;52868;49.758;9.586;2023-02-28T16:33:47;5.10;54.60
66086;DHT22;52868;49.758;9.586;2023-02-28T16:36:20;5.10;54.60
66086;DHT22;52868;49.758;9.586;2023-02-28T16:38:45;5.00;54.70
66086;DHT22;52868;49.758;9.586;2023-02-28T16:41:21;5.00;55.00
66086;DHT22;52868;49.758;9.586;2023-02-28T16:43:48;5.00;55.40
66086;DHT22;52868;49.758;9.586;2023-02-28T16:46:14;5.10;55.60
66086;DHT22;52868;49.758;9.586;2023-02-28T16:48:42;5.00;55.30
66086;DHT22;52868;49.758;9.586;2023-02-28T16:51:12;5.00;55.40
66086;DHT22;52868;49.758;9.586;2023-02-28T16:53:38;5.00;55.50
66086;DHT22;52868;49.758;9.586;2023-02-28T16:56:04;5.00;55.40
66086;DHT22;52868;49.758;9.586;2023-02-28T16:58:32;5.00;55.20
66086;DHT22;52868;49.758;9.586;2023-02-28T17:01:01;5.00;55.40
66086;DHT22;52868;49.758;9.586;2023-02-28T17:03:28;4.90;55.50
66086;DHT22;52868;49.758;9.586;2023-02-28T17:05:54;5.00;55.70
66086;DHT22;52868;49.758;9.586;2023-02-28T17:08:20;4.80;55.80
66086;DHT22;52868;49.758;9.586;2023-02-28T17:10:46;4.80;56.00
66086;DHT22;52868;49.758;9.586;2023-02-28T17:13:12;4.70;55.90
66086;DHT22;52868;49.758;9.586;2023-02-28T17:15:38;4.70;56.00
66086;DHT22;52868;49.758;9.586;2023-02-28T17:18:04;4.70;56.20
66086;DHT22;52868;49.758;9.586;2023-02-28T17:20:30;4.70;56.30
66086;DHT22;52868;49.758;9.586;2023-02-28T17:22:56;4.70;56.60
66086;DHT22;52868;49.758;9.586;2023-02-28T17:25:22;4.60;56.50
66086;DHT22;52868;49.758;9.586;2023-02-28T17:27:48;4.60;56.50
66086;DHT22;52868;49.758;9.586;2023-02-28T17:32:42;4.40;56.80
66086;DHT22;52868;49.758;9.586;2023-02-28T17:35:08;4.40;56.80
66086;DHT22;52868;49.758;9.586;2023-02-28T17:37:34;4.30;56.90
66086;DHT22;52868;49.758;9.586;2023-02-28T17:39:59;4.30;56.80
66086;DHT22;52868;49.758;9.586;2023-02-28T17:42:25;4.30;57.00
66086;DHT22;52868;49.758;9.586;2023-02-28T17:44:51;4.30;56.80
66086;DHT22;52868;49.758;9.586;2023-02-28T17:47:16;4.30;57.10
66086;DHT22;52868;49.758;9.586;2023-02-28T17:49:42;4.20;56.90
66086;DHT22;52868;49.758;9.586;2023-02-28T17:52:08;4.20;57.10
66086;DHT22;52868;49.758;9.586;2023-02-28T17:54:34;4.10;57.30
66086;DHT22;52868;49.758;9.586;2023-02-28T17:56:59;4.20;57.10
66086;DHT22;52868;49.758;9.586;2023-02-28T17:59:25;4.10;57.10
66086;DHT22;52868;49.758;9.586;2023-02-28T18:02:01;4.10;57.20
66086;DHT22;52868;49.758;9.586;2023-02-28T18:04:27;4.10;57.30
66086;DHT22;52868;49.758;9.586;2023-02-28T18:06:53;4.10;57.30
66086;DHT22;52868;49.758;9.586;2023-02-28T18:09:22;4.10;57.10
66086;DHT22;52868;49.758;9.586;2023-02-28T18:11:52;4.00;57.30
66086;DHT22;52868;49.758;9.586;2023-02-28T18:14:21;4.00;57.50
66086;DHT22;52868;49.758;9.586;2023-02-28T18:16:53;4.00;57.40
66086;DHT22;52868;49.758;9.586;2023-02-28T18:19:20;3.90;57.20